Time;durP1;ratioP1;P1;durP2;ratioP2;P2;SDS_P1;SDS_P2;PMS_P1;PMS_P2;Temp;Humidity;BMP_temperature;BMP_pressure;BME280_temperature;BME280_humidity;BME280_pressure;Samples;Min_cycle;Max_cycle;Signal;HPM_P1;HPM_P2
2021/07/14 00:01:33;;;;;;;13.07;8.07;;;12.30;99.90;;;;;;5048246;28;20514;-90
2021/07/14 00:04:22;;;;;;;11.90;8.25;;;12.20;99.90;;;;;;5029508;28;20094;-87
2021/07/14 00:07:10;;;;;;;11.02;8.32;;;12.20;99.90;;;;;;5057021;28;20041;-88
2021/07/14 00:09:58;;;;;;;11.50;8.35;;;12.20;99.90;;;;;;5060701;28;20048;-89
2021/07/14 00:22:12;;;;;;;15.80;9.38;;;12.20;99.90;;;;;;5045796;28;20077;-90
2021/07/14 00:25:02;;;;;;;14.20;9.18;;;12.20;99.90;;;;;;5060429;28;20123;-87
2021/07/14 00:27:52;;;;;;;15.60;10.45;;;12.20;99.90;;;;;;5056323;28;20095;-88
2021/07/14 00:30:39;;;;;;;26.80;12.25;;;12.10;99.90;;;;;;5033010;28;20137;-89
2021/07/14 00:33:27;;;;;;;18.70;11.50;;;12.10;99.90;;;;;;5044848;28;20495;-91
2021/07/14 00:36:15;;;;;;;18.25;10.00;;;12.10;99.90;;;;;;5059772;28;20115;-89
2021/07/14 00:39:03;;;;;;;17.73;10.68;;;12.00;99.90;;;;;;5049952;28;20163;-89
2021/07/14 00:41:50;;;;;;;26.02;11.10;;;12.00;99.90;;;;;;5055255;28;20056;-90
2021/07/14 00:44:38;;;;;;;17.20;11.35;;;12.00;99.90;;;;;;5046833;28;20117;-89
2021/07/14 00:47:32;;;;;;;14.27;11.25;;;12.00;99.90;;;;;;5013660;28;20064;-88
2021/07/14 00:50:19;;;;;;;17.42;10.65;;;11.90;99.90;;;;;;5055152;28;20064;-88
2021/07/14 00:53:07;;;;;;;19.90;10.57;;;11.90;99.90;;;;;;5045369;28;20457;-89
2021/07/14 00:55:54;;;;;;;17.98;10.77;;;11.90;99.90;;;;;;5023378;28;20048;-89
2021/07/14 00:58:43;;;;;;;25.30;12.32;;;11.90;99.90;;;;;;5040769;28;20195;-88
2021/07/14 01:01:31;;;;;;;18.73;12.55;;;11.90;99.90;;;;;;5054082;28;20539;-86
2021/07/14 01:04:30;;;;;;;18.50;12.15;;;11.90;99.90;;;;;;5041013;28;20036;-87
2021/07/14 01:07:29;;;;;;;21.38;11.50;;;11.80;99.90;;;;;;5068661;28;20573;-88
2021/07/14 01:10:41;;;;;;;19.38;11.35;;;11.80;99.90;;;;;;5068584;28;20040;-87
2021/07/14 01:13:56;;;;;;;22.57;11.93;;;11.80;99.90;;;;;;5067796;28;20057;-89
2021/07/14 01:16:45;;;;;;;14.93;11.02;;;11.80;99.90;;;;;;5056988;28;20060;-88
2021/07/14 01:20:01;;;;;;;18.70;12.40;;;11.70;99.90;;;;;;5068159;28;20041;-88
2021/07/14 01:23:17;;;;;;;19.77;12.15;;;11.70;99.90;;;;;;5053556;28;20115;-88
2021/07/14 01:26:17;;;;;;;18.13;13.23;;;11.70;99.90;;;;;;5046014;28;20128;-87
2021/07/14 01:29:09;;;;;;;24.42;12.55;;;11.70;99.90;;;;;;5033748;28;20497;-87
2021/07/14 01:31:59;;;;;;;17.65;11.50;;;11.70;99.90;;;;;;5043793;28;20129;-87
2021/07/14 01:34:52;;;;;;;19.33;11.80;;;11.70;99.90;;;;;;5030678;28;20526;-87
2021/07/14 01:37:44;;;;;;;26.52;12.38;;;11.70;99.90;;;;;;5039829;28;20041;-90
2021/07/14 01:40:32;;;;;;;18.73;11.50;;;11.60;99.90;;;;;;5050952;28;20049;-90
2021/07/14 01:43:23;;;;;;;17.30;12.27;;;11.60;99.90;;;;;;5031189;28;20123;-89
2021/07/14 01:46:13;;;;;;;21.75;13.15;;;11.70;99.90;;;;;;5063157;28;20450;-90
2021/07/14 01:49:07;;;;;;;19.45;13.07;;;11.70;99.90;;;;;;5045712;28;20385;-89
2021/07/14 01:52:04;;;;;;;18.63;13.32;;;11.70;99.90;;;;;;5048320;28;20040;-88
2021/07/14 01:54:55;;;;;;;21.55;13.85;;;11.80;99.90;;;;;;5041360;28;20385;-86
2021/07/14 01:57:43;;;;;;;22.67;12.43;;;11.80;99.90;;;;;;5039974;28;20064;-87
2021/07/14 02:00:33;;;;;;;16.58;13.15;;;11.90;99.90;;;;;;5054953;28;20065;-89
2021/07/14 02:06:15;;;;;;;15.30;12.52;;;11.90;99.90;;;;;;5059226;28;20123;-86
2021/07/14 02:09:03;;;;;;;19.90;13.27;;;11.90;99.90;;;;;;5060172;28;20133;-87
2021/07/14 02:11:54;;;;;;;20.50;12.68;;;11.90;99.90;;;;;;5042979;28;20106;-88
2021/07/14 02:14:55;;;;;;;17.17;12.98;;;11.90;99.90;;;;;;5034354;28;20524;-90
2021/07/14 02:18:04;;;;;;;21.02;12.68;;;11.90;99.90;;;;;;5039343;28;20065;-87
2021/07/14 02:20:55;;;;;;;14.98;11.93;;;11.90;99.90;;;;;;5035260;28;20045;-88
2021/07/14 02:23:43;;;;;;;16.75;12.00;;;11.90;99.90;;;;;;5042095;28;20037;-88
2021/07/14 02:26:31;;;;;;;20.33;11.93;;;11.90;99.90;;;;;;5038454;28;20476;-86
2021/07/14 02:29:19;;;;;;;17.25;12.05;;;11.90;99.90;;;;;;5049642;28;21265;-86
2021/07/14 02:32:08;;;;;;;19.20;12.40;;;11.80;99.90;;;;;;5055305;28;20190;-88
2021/07/14 02:34:58;;;;;;;22.70;12.13;;;11.80;99.90;;;;;;5048056;28;20078;-88
2021/07/14 02:38:08;;;;;;;21.40;11.82;;;11.80;99.90;;;;;;5053163;28;20199;-85
2021/07/14 02:41:08;;;;;;;18.88;11.82;;;11.80;99.90;;;;;;5058727;28;20113;-87
2021/07/14 02:43:58;;;;;;;30.80;12.05;;;11.70;99.90;;;;;;5053920;28;20063;-88
2021/07/14 02:46:49;;;;;;;26.75;11.65;;;11.70;99.90;;;;;;5050215;28;20187;-89
2021/07/14 02:49:39;;;;;;;20.10;10.65;;;11.70;99.90;;;;;;5036529;28;20049;-89
2021/07/14 02:52:28;;;;;;;20.65;10.82;;;11.70;99.90;;;;;;5028724;28;20407;-88
2021/07/14 02:55:22;;;;;;;19.63;10.50;;;11.60;99.90;;;;;;5058433;28;20137;-88
2021/07/14 02:58:13;;;;;;;17.45;10.43;;;11.60;99.90;;;;;;5049538;28;20183;-88
2021/07/14 03:01:02;;;;;;;21.58;11.43;;;11.60;99.90;;;;;;5053896;28;20387;-90
2021/07/14 03:03:53;;;;;;;14.90;10.82;;;11.50;99.90;;;;;;5043409;28;20044;-88
2021/07/14 03:06:41;;;;;;;16.10;10.77;;;11.50;99.90;;;;;;5050064;28;20126;-91
2021/07/14 03:09:37;;;;;;;14.63;9.95;;;11.50;99.90;;;;;;5040520;28;20095;-88
2021/07/14 03:12:26;;;;;;;15.13;9.93;;;11.50;99.90;;;;;;5042959;28;20040;-88
2021/07/14 03:15:13;;;;;;;18.15;9.80;;;11.60;99.90;;;;;;5057391;28;20057;-88
2021/07/14 03:18:09;;;;;;;16.35;9.82;;;11.70;99.90;;;;;;5052818;28;20044;-86
2021/07/14 03:20:59;;;;;;;13.98;9.13;;;11.70;99.90;;;;;;5037276;28;20382;-87
2021/07/14 03:23:46;;;;;;;18.58;10.18;;;11.70;99.90;;;;;;5039303;28;20060;-86
2021/07/14 03:26:36;;;;;;;12.10;9.30;;;11.70;99.90;;;;;;5050909;28;20067;-88
2021/07/14 03:29:25;;;;;;;12.45;9.38;;;11.70;99.90;;;;;;5052758;28;20078;-89
2021/07/14 03:32:13;;;;;;;14.18;8.73;;;11.70;99.90;;;;;;5051577;28;20044;-87
2021/07/14 03:35:03;;;;;;;17.02;9.02;;;11.70;99.90;;;;;;5038113;28;20045;-87
2021/07/14 03:37:52;;;;;;;17.15;8.82;;;11.70;99.90;;;;;;5058212;28;20056;-87
2021/07/14 03:40:42;;;;;;;15.38;8.50;;;11.70;99.90;;;;;;5044662;28;20037;-90
2021/07/14 03:43:30;;;;;;;14.57;8.60;;;11.70;99.90;;;;;;5049947;28;20048;-90
2021/07/14 03:46:18;;;;;;;20.63;9.13;;;11.70;99.90;;;;;;5050005;28;20068;-87
2021/07/14 03:49:06;;;;;;;16.80;8.48;;;11.70;99.90;;;;;;5062552;28;20037;-87
2021/07/14 03:51:55;;;;;;;17.40;8.68;;;11.80;99.90;;;;;;5053540;28;20041;-91
2021/07/14 03:54:46;;;;;;;14.13;7.68;;;11.70;99.90;;;;;;5032831;28;20195;-89
2021/07/14 03:57:36;;;;;;;17.05;8.65;;;11.70;99.90;;;;;;5038342;28;20857;-89
2021/07/14 04:00:24;;;;;;;15.38;8.27;;;11.80;99.90;;;;;;5039599;28;20134;-89
2021/07/14 04:03:16;;;;;;;18.02;8.38;;;11.80;99.90;;;;;;5053158;28;20052;-89
2021/07/14 04:06:05;;;;;;;12.50;8.18;;;11.80;99.90;;;;;;5038571;28;20494;-89
2021/07/14 04:09:17;;;;;;;13.50;8.35;;;11.80;99.90;;;;;;5046455;28;20062;-90
2021/07/14 04:12:05;;;;;;;13.70;7.50;;;11.90;99.90;;;;;;5050847;28;20397;-89
2021/07/14 04:14:52;;;;;;;13.10;7.72;;;11.90;99.90;;;;;;5046654;28;20096;-88
2021/07/14 04:17:40;;;;;;;10.30;8.48;;;12.00;99.90;;;;;;5044631;28;20111;-91
2021/07/14 04:20:27;;;;;;;11.02;8.02;;;12.00;99.90;;;;;;5049405;28;20409;-88
2021/07/14 04:45:41;;;;;;;8.90;7.10;;;12.10;99.90;;;;;;4988654;28;20101;-86
2021/07/14 04:49:37;;;;;;;11.88;8.07;;;12.20;99.90;;;;;;4916383;29;20142;-87
2021/07/14 04:53:03;;;;;;;10.65;7.97;;;12.20;99.90;;;;;;4924468;29;20072;-87
2021/07/14 04:57:01;;;;;;;14.10;8.15;;;12.10;99.90;;;;;;4879677;29;20040;-87
2021/07/14 05:00:07;;;;;;;12.87;8.53;;;12.10;99.90;;;;;;4918819;28;20047;-88
2021/07/14 05:03:00;;;;;;;13.63;8.15;;;12.10;99.90;;;;;;4983405;28;20285;-89
2021/07/14 05:05:52;;;;;;;11.18;8.48;;;12.10;99.90;;;;;;4982027;28;20070;-86
2021/07/14 05:08:41;;;;;;;15.95;8.48;;;12.10;99.90;;;;;;4996506;28;20050;-89
2021/07/14 05:11:29;;;;;;;10.30;8.02;;;12.10;99.90;;;;;;4970321;28;20050;-91
2021/07/14 05:14:19;;;;;;;9.77;7.47;;;12.10;99.90;;;;;;4991898;28;20166;-92
2021/07/14 05:17:09;;;;;;;13.98;7.90;;;12.20;99.90;;;;;;5003808;28;20042;-90
2021/07/14 05:19:56;;;;;;;14.55;7.50;;;12.20;99.90;;;;;;5003062;28;20108;-89
2021/07/14 05:22:45;;;;;;;12.23;7.78;;;12.30;99.90;;;;;;4989582;28;20097;-90
2021/07/14 05:25:33;;;;;;;12.85;7.13;;;12.30;99.90;;;;;;4992645;28;20052;-90
2021/07/14 05:28:22;;;;;;;7.65;6.85;;;12.40;99.90;;;;;;4982612;28;20057;-91
2021/07/14 05:31:13;;;;;;;10.30;5.90;;;12.50;99.90;;;;;;4990901;28;20132;-91
2021/07/14 05:34:00;;;;;;;12.07;5.85;;;12.60;99.90;;;;;;4985309;28;20427;-92
2021/07/14 05:36:48;;;;;;;7.38;6.20;;;12.70;99.90;;;;;;4987522;28;20152;-90
2021/07/14 05:39:43;;;;;;;9.10;5.93;;;12.70;99.90;;;;;;4974414;28;20042;-92
2021/07/14 05:42:31;;;;;;;9.70;5.68;;;12.80;99.90;;;;;;4982798;28;20038;-90
2021/07/14 05:45:24;;;;;;;10.52;6.32;;;12.80;99.90;;;;;;4997490;28;20042;-89
2021/07/14 06:05:36;;;;;;;8.07;5.53;;;13.20;99.90;;;;;;4898419;28;20078;-87
2021/07/14 06:25:25;;;;;;;6.63;5.13;;;13.50;99.90;;;;;;4772237;30;20048;-89
2021/07/14 06:28:29;;;;;;;8.38;5.18;;;13.60;99.90;;;;;;4854620;29;20114;-86
2021/07/14 06:31:23;;;;;;;7.88;5.78;;;13.70;99.90;;;;;;4957011;28;20058;-90
2021/07/14 06:34:43;;;;;;;5.80;5.03;;;13.70;99.90;;;;;;4932983;28;20103;-90
2021/07/14 06:37:37;;;;;;;10.38;5.22;;;13.90;99.90;;;;;;4937872;29;20147;-90
2021/07/14 06:40:25;;;;;;;7.13;4.78;;;13.90;99.90;;;;;;4954136;28;20043;-92
2021/07/14 06:43:59;;;;;;;6.60;4.13;;;14.00;99.90;;;;;;4951731;28;20154;-90
2021/07/14 06:47:01;;;;;;;8.90;5.43;;;14.00;99.90;;;;;;4944496;29;20126;-89
2021/07/14 06:50:14;;;;;;;11.57;4.88;;;14.00;99.90;;;;;;4941058;29;20062;-89
2021/07/14 06:53:04;;;;;;;6.35;4.63;;;13.90;99.90;;;;;;4947183;29;20051;-89
2021/07/14 06:55:54;;;;;;;7.95;5.10;;;13.90;99.90;;;;;;4941857;29;20118;-90
2021/07/14 06:58:50;;;;;;;9.70;4.60;;;13.90;99.90;;;;;;4974766;28;20314;-90
2021/07/14 07:01:38;;;;;;;8.57;4.80;;;14.00;99.90;;;;;;4975397;28;20314;-86
2021/07/14 07:04:25;;;;;;;6.82;4.90;;;14.00;99.90;;;;;;4994757;28;20102;-86
2021/07/14 07:07:12;;;;;;;8.38;4.47;;;14.00;99.90;;;;;;4977678;28;20157;-88
2021/07/14 07:10:00;;;;;;;9.07;4.78;;;14.10;99.90;;;;;;5002318;28;20050;-85
2021/07/14 07:12:47;;;;;;;14.35;4.97;;;14.00;99.90;;;;;;4976966;28;20050;-87
2021/07/14 07:15:35;;;;;;;10.68;5.32;;;14.00;99.90;;;;;;4973661;28;20126;-85
2021/07/14 07:18:22;;;;;;;15.55;5.07;;;14.00;99.90;;;;;;4977153;28;20101;-88
2021/07/14 07:21:17;;;;;;;6.37;4.70;;;14.10;99.90;;;;;;4991669;28;20072;-89
2021/07/14 07:24:05;;;;;;;8.65;4.30;;;14.10;99.90;;;;;;4990970;28;20281;-88
2021/07/14 07:26:54;;;;;;;7.97;4.63;;;14.20;99.90;;;;;;4976994;28;20471;-86
2021/07/14 07:29:44;;;;;;;13.20;4.25;;;14.10;99.90;;;;;;4980798;28;20120;-85
2021/07/14 07:32:34;;;;;;;8.82;4.90;;;14.10;99.90;;;;;;4991427;28;20046;-86
2021/07/14 07:35:21;;;;;;;10.75;4.63;;;14.20;99.90;;;;;;4992559;28;20463;-88
2021/07/14 07:38:12;;;;;;;7.40;4.10;;;14.30;99.90;;;;;;4993281;28;20124;-86
2021/07/14 07:41:02;;;;;;;6.85;4.32;;;14.50;99.90;;;;;;4987179;28;20054;-86
2021/07/14 07:43:49;;;;;;;6.18;4.68;;;14.50;99.90;;;;;;4979307;28;20046;-86
2021/07/14 07:46:39;;;;;;;7.28;3.35;;;14.70;99.90;;;;;;4988467;28;20554;-86
2021/07/14 07:49:27;;;;;;;3.65;3.20;;;14.90;99.90;;;;;;4994556;28;20254;-89
2021/07/14 07:52:21;;;;;;;6.43;3.67;;;14.90;99.90;;;;;;4987817;28;20046;-85
2021/07/14 07:55:10;;;;;;;9.43;3.55;;;15.00;99.90;;;;;;4985716;28;20082;-87
2021/07/14 07:57:58;;;;;;;11.43;3.95;;;14.90;99.90;;;;;;4978542;28;20089;-89
2021/07/14 08:00:46;;;;;;;4.65;3.33;;;14.80;99.90;;;;;;4970922;28;20493;-89
2021/07/14 08:03:34;;;;;;;5.30;3.35;;;14.90;99.90;;;;;;4983296;28;20132;-89
2021/07/14 08:06:21;;;;;;;5.07;3.25;;;14.80;99.90;;;;;;4993695;28;20061;-89
2021/07/14 08:09:08;;;;;;;10.30;3.50;;;14.90;99.90;;;;;;4993219;28;20058;-86
2021/07/14 08:11:58;;;;;;;8.98;3.33;;;15.10;99.90;;;;;;4962851;28;20451;-87
2021/07/14 08:14:46;;;;;;;6.05;3.15;;;15.20;99.90;;;;;;4978751;28;20126;-91
2021/07/14 08:17:34;;;;;;;6.55;3.38;;;15.20;99.90;;;;;;4981962;28;20053;-89
2021/07/14 08:20:23;;;;;;;8.30;3.10;;;15.20;99.90;;;;;;5000961;28;20062;-86
2021/07/14 08:23:13;;;;;;;8.55;3.65;;;15.20;99.90;;;;;;4992892;28;20038;-87
2021/07/14 08:26:00;;;;;;;6.72;3.28;;;15.10;99.90;;;;;;4992665;28;20047;-87
2021/07/14 08:28:47;;;;;;;7.35;3.67;;;15.10;99.90;;;;;;4980227;28;20474;-88
2021/07/14 08:31:35;;;;;;;6.25;4.32;;;15.00;99.90;;;;;;4992873;28;20130;-90
2021/07/14 08:34:25;;;;;;;10.73;4.30;;;15.00;99.90;;;;;;4973073;28;20125;-88
2021/07/14 08:37:12;;;;;;;6.25;3.88;;;15.00;99.90;;;;;;4978763;28;20061;-87
2021/07/14 08:40:00;;;;;;;5.93;4.05;;;15.10;99.90;;;;;;4997631;28;20074;-88
2021/07/14 08:42:49;;;;;;;6.10;4.13;;;15.20;99.90;;;;;;4972579;28;20368;-87
2021/07/14 08:45:38;;;;;;;7.30;4.10;;;15.30;99.90;;;;;;4998781;28;20046;-88
2021/07/14 08:48:26;;;;;;;9.18;4.47;;;15.40;99.90;;;;;;4998152;28;20057;-89
2021/07/14 08:51:15;;;;;;;6.78;3.90;;;15.50;99.90;;;;;;4984339;28;20453;-87
2021/07/14 08:54:04;;;;;;;5.53;4.82;;;15.70;99.90;;;;;;4992908;28;20042;-88
2021/07/14 08:56:51;;;;;;;10.68;6.13;;;15.60;99.90;;;;;;4991693;28;20058;-87
2021/07/14 08:59:43;;;;;;;9.98;4.93;;;15.60;99.90;;;;;;4981427;28;20035;-86
2021/07/14 09:02:30;;;;;;;8.18;4.47;;;15.60;99.90;;;;;;4998172;28;20042;-88
2021/07/14 09:05:17;;;;;;;9.82;4.90;;;15.60;99.90;;;;;;4996028;28;20046;-88
2021/07/14 09:08:05;;;;;;;9.48;4.75;;;15.60;99.90;;;;;;4981830;28;20132;-88
2021/07/14 09:10:54;;;;;;;8.45;4.75;;;15.60;99.90;;;;;;4971544;28;20138;-88
2021/07/14 09:13:41;;;;;;;6.53;4.90;;;15.60;99.90;;;;;;4990050;28;20046;-87
2021/07/14 09:16:37;;;;;;;10.25;5.20;;;15.50;99.90;;;;;;4994378;28;20128;-88
2021/07/14 09:19:28;;;;;;;7.80;4.60;;;15.50;99.90;;;;;;4983234;28;20053;-88
2021/07/14 09:22:21;;;;;;;6.75;4.65;;;15.60;99.90;;;;;;4984737;28;20062;-87
2021/07/14 09:25:18;;;;;;;9.70;4.40;;;15.80;99.90;;;;;;4996782;28;20049;-87
2021/07/14 09:28:07;;;;;;;6.07;4.13;;;15.80;99.90;;;;;;4980773;28;20423;-89
2021/07/14 09:30:59;;;;;;;6.55;4.95;;;15.80;99.90;;;;;;4982148;28;20045;-87
2021/07/14 09:33:48;;;;;;;6.95;5.15;;;16.00;99.90;;;;;;4981759;28;20124;-88
2021/07/14 09:36:36;;;;;;;5.28;3.78;;;16.00;99.90;;;;;;4981906;28;20597;-88
2021/07/14 09:39:39;;;;;;;9.38;3.70;;;16.10;99.90;;;;;;4989214;28;20038;-87
2021/07/14 09:42:28;;;;;;;8.45;3.53;;;16.30;99.90;;;;;;4992971;28;20125;-88
2021/07/14 09:45:15;;;;;;;8.68;3.53;;;16.40;99.90;;;;;;4994875;28;20121;-85
2021/07/14 09:48:04;;;;;;;4.32;3.65;;;16.50;99.90;;;;;;4984580;28;20073;-87
2021/07/14 09:50:59;;;;;;;8.27;2.90;;;16.50;99.90;;;;;;4993884;28;20336;-86
2021/07/14 09:53:47;;;;;;;6.78;3.60;;;16.40;99.90;;;;;;4995776;28;20152;-88
2021/07/14 09:56:36;;;;;;;7.28;3.53;;;16.40;99.90;;;;;;4989350;28;20185;-91
2021/07/14 09:59:28;;;;;;;7.45;3.10;;;16.60;99.90;;;;;;4995870;28;20038;-85
2021/07/14 10:02:16;;;;;;;;;;;16.70;99.90;;;;;;4994795;28;20043;-87
2021/07/14 10:05:11;;;;;;;5.35;2.65;;;16.90;99.90;;;;;;4994167;28;20355;-87
2021/07/14 10:08:22;;;;;;;6.97;2.92;;;17.30;99.90;;;;;;4994539;28;20046;-89
2021/07/14 10:11:24;;;;;;;4.13;2.75;;;17.50;99.90;;;;;;4997603;28;20164;-87
2021/07/14 10:14:11;;;;;;;6.85;3.10;;;17.90;99.90;;;;;;4993249;28;20046;-87
2021/07/14 10:16:58;;;;;;;3.80;2.55;;;18.20;99.90;;;;;;4985038;28;20046;-90
2021/07/14 10:19:46;;;;;;;3.72;2.17;;;18.50;99.90;;;;;;4981697;28;20057;-88
2021/07/14 10:22:34;;;;;;;8.23;2.42;;;18.40;99.90;;;;;;4995637;28;20209;-88
2021/07/14 10:25:23;;;;;;;3.88;2.25;;;18.40;99.90;;;;;;4980527;28;20047;-87
2021/07/14 10:28:14;;;;;;;4.28;2.00;;;18.70;99.90;;;;;;4990506;28;21259;-85
2021/07/14 10:31:01;;;;;;;4.00;1.80;;;18.70;99.90;;;;;;4992741;28;20054;-90
2021/07/14 10:33:50;;;;;;;3.53;1.73;;;18.90;99.90;;;;;;4993076;28;20058;-89
2021/07/14 10:36:38;;;;;;;2.10;1.30;;;18.80;99.90;;;;;;4972072;28;20058;-88
2021/07/14 10:39:28;;;;;;;2.78;1.50;;;19.30;99.90;;;;;;4994617;28;20122;-86
2021/07/14 10:42:16;;;;;;;3.22;1.70;;;19.70;99.90;;;;;;4995361;28;20042;-88
2021/07/14 10:45:04;;;;;;;5.38;1.48;;;19.90;99.90;;;;;;4981342;28;20053;-87
2021/07/14 10:47:53;;;;;;;1.30;1.13;;;20.20;99.90;;;;;;4980737;28;20543;-87
2021/07/14 10:50:41;;;;;;;2.55;1.38;;;20.80;99.90;;;;;;4979187;28;20456;-86
2021/07/14 10:53:29;;;;;;;3.85;1.30;;;20.50;99.90;;;;;;4990811;28;20086;-86
2021/07/14 10:56:17;;;;;;;1.92;1.40;;;20.30;99.90;;;;;;4960429;28;20171;-89
2021/07/14 10:59:05;;;;;;;4.78;0.93;;;20.40;99.90;;;;;;4994161;28;20139;-85
2021/07/14 11:01:55;;;;;;;2.17;1.42;;;20.90;99.90;;;;;;4993706;28;20042;-90
2021/07/14 11:04:43;;;;;;;1.35;0.90;;;21.30;99.90;;;;;;4993198;28;20042;-88
2021/07/14 11:07:39;;;;;;;1.35;1.20;;;21.50;99.60;;;;;;4990329;28;20073;-86
2021/07/14 11:10:34;;;;;;;2.53;1.10;;;21.40;98.10;;;;;;4994074;28;20058;-85
2021/07/14 11:13:28;;;;;;;1.80;1.08;;;21.30;96.90;;;;;;4981918;28;20832;-87
2021/07/14 11:16:28;;;;;;;2.05;1.20;;;21.70;96.30;;;;;;4991130;28;20050;-89
2021/07/14 11:19:18;;;;;;;1.48;1.13;;;22.10;95.40;;;;;;4994121;28;20136;-88
2021/07/14 11:22:10;;;;;;;1.90;0.80;;;22.40;93.50;;;;;;4993162;28;20038;-87
2021/07/14 11:24:58;;;;;;;1.65;0.80;;;22.80;91.90;;;;;;4992626;28;20112;-88
2021/07/14 11:27:53;;;;;;;3.42;1.10;;;22.30;91.30;;;;;;4976300;28;20046;-86
2021/07/14 11:30:48;;;;;;;1.20;1.10;;;21.40;93.80;;;;;;4987588;28;20100;-88
2021/07/14 11:33:38;;;;;;;3.03;1.00;;;21.20;95.30;;;;;;4992107;28;20142;-90
2021/07/14 11:36:40;;;;;;;1.58;0.90;;;21.40;95.60;;;;;;4993674;28;20054;-89
2021/07/14 11:39:29;;;;;;;2.67;1.25;;;21.50;93.70;;;;;;4998330;28;20042;-85
2021/07/14 11:42:19;;;;;;;1.77;0.70;;;21.90;92.70;;;;;;4987271;28;20156;-88
2021/07/14 11:45:10;;;;;;;2.00;0.80;;;22.10;92.50;;;;;;4978552;28;20109;-88
2021/07/14 11:48:06;;;;;;;0.75;0.73;;;22.20;90.40;;;;;;4986422;28;20073;-87
2021/07/14 11:51:06;;;;;;;1.08;0.80;;;21.60;91.80;;;;;;4993513;28;20364;-87
2021/07/14 11:53:54;;;;;;;1.38;1.00;;;21.20;92.80;;;;;;4993903;28;20050;-88
2021/07/14 11:56:45;;;;;;;3.25;1.00;;;21.20;91.70;;;;;;4982118;28;20062;-90
2021/07/14 11:59:32;;;;;;;2.33;1.00;;;21.30;93.10;;;;;;4989488;28;20112;-90
2021/07/14 12:02:22;;;;;;;2.72;0.80;;;21.30;94.10;;;;;;4984177;28;20043;-88
2021/07/14 12:05:11;;;;;;;1.27;0.80;;;21.30;93.50;;;;;;4992427;28;20046;-87
2021/07/14 12:08:12;;;;;;;1.35;0.70;;;21.50;92.20;;;;;;4981435;28;20100;-84
2021/07/14 12:10:59;;;;;;;2.53;0.88;;;21.50;92.10;;;;;;4993061;28;20224;-87
2021/07/14 12:14:08;;;;;;;0.85;0.80;;;21.60;90.90;;;;;;4991788;28;20107;-86
2021/07/14 12:17:00;;;;;;;2.00;1.00;;;22.00;89.10;;;;;;4981103;28;20412;-86
2021/07/14 12:19:54;;;;;;;1.23;0.65;;;22.00;90.40;;;;;;4993143;28;20045;-86
2021/07/14 12:22:41;;;;;;;1.08;0.98;;;22.00;88.00;;;;;;4986475;28;20046;-88
2021/07/14 12:25:33;;;;;;;2.28;0.80;;;21.90;89.00;;;;;;4993142;28;20077;-86
2021/07/14 12:28:25;;;;;;;0.75;0.70;;;22.20;87.40;;;;;;4992869;28;20384;-85
2021/07/14 12:31:13;;;;;;;0.90;0.70;;;22.80;85.00;;;;;;4993096;28;20446;-88
2021/07/14 12:34:02;;;;;;;1.58;0.60;;;22.70;82.50;;;;;;4989690;28;20333;-87
2021/07/14 12:36:50;;;;;;;2.10;0.90;;;22.70;81.40;;;;;;4991637;28;20365;-87
2021/07/14 12:39:40;;;;;;;0.73;0.60;;;23.10;79.90;;;;;;4991778;28;20089;-88
2021/07/14 12:42:27;;;;;;;0.85;0.80;;;23.70;77.80;;;;;;4993466;28;20047;-88
2021/07/14 12:45:34;;;;;;;0.80;0.65;;;23.70;77.20;;;;;;4990435;28;20483;-91
2021/07/14 12:48:27;;;;;;;1.00;0.60;;;23.70;75.50;;;;;;4986139;28;20121;-87
2021/07/14 12:51:15;;;;;;;0.85;0.60;;;24.40;72.50;;;;;;4988991;28;20118;-88
2021/07/14 12:54:02;;;;;;;0.85;0.80;;;23.90;72.50;;;;;;4988202;28;20642;-87
2021/07/14 12:56:49;;;;;;;1.30;0.70;;;23.70;74.10;;;;;;4978159;28;20142;-88
2021/07/14 12:59:48;;;;;;;1.10;0.70;;;22.90;78.20;;;;;;4992361;28;20121;-88
2021/07/14 13:02:56;;;;;;;1.00;0.85;;;22.50;79.10;;;;;;4976094;28;20213;-89
2021/07/14 13:05:46;;;;;;;1.38;0.70;;;22.60;79.30;;;;;;4973467;28;20384;-87
2021/07/14 13:08:35;;;;;;;0.82;0.60;;;22.60;75.20;;;;;;4992599;28;20074;-87
2021/07/14 13:11:23;;;;;;;0.70;0.70;;;22.20;76.20;;;;;;4993374;28;20046;-89
2021/07/14 13:14:11;;;;;;;1.58;0.73;;;21.90;77.20;;;;;;4984888;28;20105;-89
2021/07/14 13:16:58;;;;;;;0.70;0.70;;;22.00;77.80;;;;;;4967505;28;20125;-88
2021/07/14 13:19:46;;;;;;;1.35;0.70;;;22.30;77.50;;;;;;4994788;28;20039;-86
2021/07/14 13:22:34;;;;;;;1.13;0.70;;;22.20;78.80;;;;;;4989973;28;20058;-89
2021/07/14 13:25:21;;;;;;;1.92;0.60;;;22.30;76.80;;;;;;4970720;28;20139;-89
2021/07/14 13:28:26;;;;;;;2.72;0.70;;;22.40;79.30;;;;;;4978780;28;20116;-89
2021/07/14 13:31:22;;;;;;;1.65;0.73;;;23.10;76.80;;;;;;4983799;28;20376;-89
2021/07/14 13:34:15;;;;;;;1.27;0.55;;;24.00;73.50;;;;;;4983640;28;20118;-86
2021/07/14 13:37:03;;;;;;;;;;;25.10;69.00;;;;;;4978729;28;20125;-87
2021/07/14 13:39:53;;;;;;;1.38;0.65;;;25.00;66.80;;;;;;4995024;28;20027;-86
2021/07/14 13:42:40;;;;;;;1.27;0.40;;;25.90;64.40;;;;;;4989634;28;20124;-91
2021/07/14 13:45:33;;;;;;;0.65;0.60;;;25.90;61.60;;;;;;4982017;28;20100;-88
2021/07/14 13:48:26;;;;;;;0.80;0.68;;;25.80;60.30;;;;;;4995992;28;20057;-86
2021/07/14 13:51:25;;;;;;;;;;;25.20;62.90;;;;;;4982252;28;20145;-90
2021/07/14 13:54:24;;;;;;;1.58;0.40;;;25.00;63.80;;;;;;5000338;28;19936;-87
2021/07/14 13:57:12;;;;;;;0.60;0.52;;;25.10;63.80;;;;;;5002419;28;20463;-87
2021/07/14 14:00:00;;;;;;;1.02;0.73;;;24.80;63.00;;;;;;4984639;28;20131;-89
2021/07/14 14:02:58;;;;;;;1.80;0.57;;;23.90;67.00;;;;;;4979098;28;20098;-88
2021/07/14 14:05:45;;;;;;;0.90;0.60;;;24.00;68.00;;;;;;4990753;28;20042;-87
2021/07/14 14:08:35;;;;;;;2.58;0.75;;;23.10;68.00;;;;;;4982621;28;20150;-89
2021/07/14 14:11:26;;;;;;;3.03;0.98;;;22.50;72.40;;;;;;4999023;28;20050;-89
2021/07/14 14:14:14;;;;;;;1.20;1.00;;;22.10;75.70;;;;;;5005196;28;20054;-86
2021/07/14 14:17:01;;;;;;;1.00;0.65;;;22.10;76.50;;;;;;5001483;28;20050;-87
2021/07/14 14:19:50;;;;;;;1.00;0.85;;;21.80;76.20;;;;;;4995916;28;20043;-86
2021/07/14 14:22:39;;;;;;;2.50;1.25;;;21.60;77.70;;;;;;4995500;28;20046;-87
2021/07/14 14:25:35;;;;;;;0.70;0.70;;;21.60;78.30;;;;;;4990433;28;20452;-86
2021/07/14 14:28:24;;;;;;;3.25;0.80;;;21.50;78.90;;;;;;5001128;28;20411;-87
2021/07/14 14:31:13;;;;;;;2.53;0.68;;;22.30;77.20;;;;;;5004493;28;20109;-87
2021/07/14 14:34:01;;;;;;;2.13;0.80;;;23.00;74.10;;;;;;5002033;28;20125;-87
2021/07/14 14:36:48;;;;;;;0.93;0.70;;;23.70;71.20;;;;;;4991220;28;20054;-87
2021/07/14 14:39:36;;;;;;;2.38;0.65;;;24.40;68.80;;;;;;4983916;28;20116;-89
2021/07/14 14:42:23;;;;;;;0.52;0.52;;;25.30;65.20;;;;;;4993919;28;20126;-86
2021/07/14 14:45:15;;;;;;;1.02;0.50;;;26.10;62.40;;;;;;4989828;28;20042;-86
2021/07/14 14:48:03;;;;;;;1.10;0.75;;;26.70;60.30;;;;;;4983599;28;20043;-86
2021/07/14 14:51:03;;;;;;;1.58;0.60;;;25.80;60.30;;;;;;4968715;28;20061;-88
2021/07/14 14:53:55;;;;;;;1.40;0.70;;;26.10;61.20;;;;;;4997793;28;20050;-85
2021/07/14 14:56:44;;;;;;;2.78;0.60;;;24.70;64.30;;;;;;4998528;28;20050;-86
2021/07/14 14:59:31;;;;;;;0.68;0.50;;;23.80;68.90;;;;;;4992852;28;20097;-86
2021/07/14 15:02:21;;;;;;;0.85;0.55;;;23.30;70.70;;;;;;4995332;28;20483;-85
2021/07/14 15:05:10;;;;;;;2.40;0.60;;;23.90;69.90;;;;;;4992088;28;20050;-86
2021/07/14 15:07:57;;;;;;;2.33;0.60;;;24.20;67.40;;;;;;4991724;28;20042;-88
2021/07/14 15:10:48;;;;;;;0.55;0.55;;;23.40;69.00;;;;;;4987689;28;20051;-87
2021/07/14 15:13:35;;;;;;;1.13;0.70;;;23.20;70.50;;;;;;4983395;28;20132;-87
2021/07/14 15:16:24;;;;;;;0.80;0.80;;;23.80;68.80;;;;;;4993586;28;20046;-85
2021/07/14 15:19:12;;;;;;;2.83;0.80;;;24.50;67.90;;;;;;4992010;28;20463;-85
2021/07/14 15:22:00;;;;;;;1.35;0.70;;;24.10;67.30;;;;;;4992917;28;20082;-85
2021/07/14 15:24:51;;;;;;;2.30;0.70;;;22.80;72.10;;;;;;4991868;28;20047;-84
2021/07/14 15:30:44;;;;;;;0.85;0.63;;;22.60;73.80;;;;;;4992004;28;20137;-85
2021/07/14 15:33:31;;;;;;;1.15;0.90;;;21.90;78.10;;;;;;4991985;28;20494;-85
2021/07/14 15:36:21;;;;;;;2.30;1.30;;;21.20;81.70;;;;;;4985738;28;20121;-84
2021/07/14 15:39:09;;;;;;;1.15;1.05;;;20.90;85.60;;;;;;4989690;28;20145;-84
2021/07/14 15:41:56;;;;;;;1.50;0.90;;;20.60;86.40;;;;;;4993400;28;20043;-83
2021/07/14 15:44:58;;;;;;;1.65;0.95;;;20.30;90.10;;;;;;4979679;28;20077;-84
2021/07/14 15:47:47;;;;;;;2.58;1.27;;;20.20;91.70;;;;;;4979961;28;20105;-85
2021/07/14 15:50:36;;;;;;;1.58;1.15;;;20.20;91.90;;;;;;4975961;28;20054;-88
2021/07/14 15:53:23;;;;;;;2.15;0.80;;;20.10;92.30;;;;;;4979121;28;20042;-85
2021/07/14 15:56:12;;;;;;;2.38;0.90;;;20.00;91.70;;;;;;4992707;28;20066;-86
2021/07/14 15:59:00;;;;;;;2.47;0.82;;;20.00;92.90;;;;;;4993070;28;20038;-89
2021/07/14 16:01:47;;;;;;;0.80;0.80;;;20.10;92.40;;;;;;4977311;28;20061;-88